createdAt,value
2023-04-11T00:01:50.161Z,8.12
2023-04-11T00:04:20.622Z,8.25
2023-04-11T00:06:48.818Z,8.06
2023-04-11T00:09:17.171Z,8.08
2023-04-11T00:11:44.800Z,8.07
2023-04-11T00:14:12.714Z,8.16
2023-04-11T00:16:41.638Z,8.16
2023-04-11T00:19:09.662Z,7.97
2023-04-11T00:21:40.203Z,8.16
2023-04-11T00:24:08.532Z,8.09
2023-04-11T00:26:36.131Z,7.97
2023-04-11T00:29:03.444Z,8.12
2023-04-11T00:31:31.391Z,7.92
2023-04-11T00:33:58.839Z,8.03
2023-04-11T00:36:27.131Z,8.02
2023-04-11T00:38:55.332Z,7.92
2023-04-11T00:41:24.350Z,7.97
2023-04-11T00:43:51.533Z,7.91
2023-04-11T00:46:19.220Z,7.82
2023-04-11T00:48:47.111Z,8.02
2023-04-11T00:51:19.425Z,8.10
2023-04-11T00:53:47.091Z,8.25
2023-04-11T00:56:14.761Z,8.08
2023-04-11T00:58:44.352Z,7.83
2023-04-11T01:01:11.949Z,7.89
2023-04-11T01:03:39.778Z,8.11
2023-04-11T01:06:13.183Z,7.81
2023-04-11T01:08:43.423Z,7.62
2023-04-11T01:11:13.739Z,7.65
2023-04-11T01:13:42.342Z,7.71
2023-04-11T01:16:10.346Z,7.69
2023-04-11T01:18:37.887Z,7.56
2023-04-11T01:21:05.675Z,7.73
2023-04-11T01:23:34.401Z,7.79
2023-04-11T01:26:01.907Z,7.62
2023-04-11T01:28:29.176Z,7.61
2023-04-11T01:30:57.889Z,7.76
2023-04-11T01:33:25.387Z,7.83
2023-04-11T01:35:52.980Z,7.84
2023-04-11T01:38:21.325Z,7.62
2023-04-11T01:40:49.067Z,7.87
2023-04-11T01:43:16.624Z,7.88
2023-04-11T01:45:44.371Z,7.75
2023-04-11T01:48:11.776Z,7.75
2023-04-11T01:50:39.451Z,7.86
2023-04-11T01:53:06.678Z,8.07
2023-04-11T01:55:34.220Z,8.04
2023-04-11T01:58:01.410Z,7.87
2023-04-11T02:00:28.949Z,7.85
2023-04-11T02:02:56.424Z,7.83
2023-04-11T02:05:24.133Z,7.91
2023-04-11T02:07:51.320Z,8.07
2023-04-11T02:10:19.469Z,7.94
2023-04-11T02:12:46.662Z,7.97
2023-04-11T02:15:14.208Z,7.99
2023-04-11T02:17:45.609Z,8.08
2023-04-11T02:20:14.648Z,8.06
2023-04-11T02:22:41.993Z,8.02
2023-04-11T02:25:09.816Z,8.08
2023-04-11T02:27:37.126Z,8.17
2023-04-11T02:30:06.244Z,8.13
2023-04-11T02:32:40.815Z,8.27
2023-04-11T02:35:08.820Z,8.37
2023-04-11T02:37:36.682Z,8.44
2023-04-11T02:40:05.065Z,8.47
2023-04-11T02:42:32.441Z,8.39
2023-04-11T02:45:00.391Z,8.56
2023-04-11T02:47:29.408Z,8.48
2023-04-11T02:50:01.675Z,8.52
2023-04-11T02:52:34.701Z,8.56
2023-04-11T02:55:02.276Z,8.47
2023-04-11T02:57:29.523Z,8.21
2023-04-11T02:59:58.018Z,7.77
2023-04-11T03:02:34.165Z,7.81
2023-04-11T03:05:05.334Z,7.81
2023-04-11T03:07:38.583Z,8.06
2023-04-11T03:10:07.351Z,7.91
2023-04-11T03:12:34.657Z,7.71
2023-04-11T03:15:05.437Z,7.96
2023-04-11T03:17:34.143Z,7.59
2023-04-11T03:20:02.464Z,7.70
2023-04-11T03:22:30.937Z,7.79
2023-04-11T03:24:58.889Z,7.87
2023-04-11T03:27:27.191Z,7.96
2023-04-11T03:29:59.414Z,8.12
2023-04-11T03:32:39.099Z,7.80
2023-04-11T03:35:07.226Z,7.59
2023-04-11T03:37:35.416Z,7.27
2023-04-11T03:40:04.394Z,7.50
2023-04-11T03:42:32.021Z,7.27
2023-04-11T03:45:01.483Z,7.50
2023-04-11T03:47:28.841Z,7.60
2023-04-11T03:49:56.594Z,7.79
2023-04-11T03:52:23.875Z,7.37
2023-04-11T03:54:51.833Z,7.58
2023-04-11T03:57:19.493Z,7.29
2023-04-11T03:59:48.024Z,7.14
2023-04-11T04:02:16.170Z,7.43
2023-04-11T04:04:55.218Z,7.68
2023-04-11T04:07:26.602Z,7.54
2023-04-11T04:10:00.520Z,7.49
2023-04-11T04:12:27.949Z,7.89
2023-04-11T04:15:18.576Z,7.85
2023-04-11T04:17:48.837Z,8.27
2023-04-11T04:20:36.431Z,8.39
2023-04-11T04:23:06.144Z,8.70
2023-04-11T04:25:53.053Z,8.52
2023-04-11T04:28:26.179Z,8.84
2023-04-11T04:30:58.146Z,9.37
2023-04-11T04:33:29.034Z,8.86
2023-04-11T04:36:00.262Z,8.40
2023-04-11T04:38:32.122Z,8.62
2023-04-11T04:41:00.983Z,8.12
2023-04-11T04:43:32.380Z,8.21
2023-04-11T04:46:11.572Z,8.59
2023-04-11T04:48:44.922Z,9.00
2023-04-11T04:51:12.469Z,10.06
2023-04-11T04:53:40.560Z,8.84
2023-04-11T04:56:11.911Z,9.03
2023-04-11T04:58:42.132Z,9.29
2023-04-11T05:01:13.190Z,10.15
2023-04-11T05:03:40.691Z,10.76
2023-04-11T05:06:16.988Z,9.00
2023-04-11T05:08:48.673Z,8.15
2023-04-11T05:11:16.551Z,8.90
2023-04-11T05:13:43.817Z,8.70
2023-04-11T05:16:11.678Z,8.52
2023-04-11T05:18:38.951Z,7.72
2023-04-11T05:21:06.765Z,7.90
2023-04-11T05:23:38.134Z,8.66
2023-04-11T05:26:07.888Z,9.53
2023-04-11T05:28:36.402Z,10.07
2023-04-11T05:31:08.947Z,9.54
2023-04-11T05:33:39.435Z,8.91
2023-04-11T05:36:08.439Z,9.06
2023-04-11T05:38:35.753Z,9.86
2023-04-11T05:41:03.255Z,9.60
2023-04-11T05:43:30.523Z,9.05
2023-04-11T05:46:01.968Z,9.08
2023-04-11T05:48:29.605Z,10.00
2023-04-11T05:50:58.384Z,10.15
2023-04-11T05:53:25.638Z,10.52
2023-04-11T05:55:53.192Z,10.25
2023-04-11T05:58:20.382Z,10.54
2023-04-11T06:00:50.001Z,10.83
2023-04-11T06:03:17.673Z,11.98
2023-04-11T06:05:45.492Z,11.74
2023-04-11T06:08:12.798Z,13.83
2023-04-11T06:10:40.292Z,15.64
2023-04-11T06:13:10.384Z,16.13
2023-04-11T06:15:38.353Z,18.07
2023-04-11T06:18:05.666Z,18.23
2023-04-11T06:20:33.218Z,14.90
2023-04-11T06:23:01.504Z,17.97
2023-04-11T06:25:29.246Z,17.78
2023-04-11T06:27:56.558Z,17.01
2023-04-11T06:30:24.348Z,16.52
2023-04-11T06:32:51.702Z,17.47
2023-04-11T06:35:20.563Z,21.10
2023-04-11T06:37:47.848Z,19.13
2023-04-11T06:40:17.295Z,14.70
2023-04-11T06:42:44.623Z,18.59
2023-04-11T06:45:12.372Z,16.64
2023-04-11T06:47:39.843Z,16.24
2023-04-11T06:50:08.045Z,13.90
2023-04-11T06:52:35.309Z,13.47
2023-04-11T06:55:02.917Z,14.44
2023-04-11T06:57:30.318Z,15.64
2023-04-11T06:59:57.772Z,16.50
2023-04-11T07:02:25.900Z,16.65
2023-04-11T07:04:53.644Z,18.16
2023-04-11T07:07:21.415Z,14.48
2023-04-11T07:09:48.986Z,13.92
2023-04-11T07:12:16.235Z,15.40
2023-04-11T07:14:43.729Z,16.06
2023-04-11T07:17:10.955Z,15.71
2023-04-11T07:19:38.412Z,16.13
2023-04-11T07:22:05.874Z,18.13
2023-04-11T07:24:33.635Z,18.32
2023-04-11T07:27:01.940Z,17.84
2023-04-11T07:29:29.674Z,17.17
2023-04-11T07:31:56.978Z,19.64
2023-04-11T07:34:24.661Z,19.49
2023-04-11T07:36:52.081Z,17.30
2023-04-11T07:39:19.673Z,17.66
2023-04-11T07:41:46.977Z,20.45
2023-04-11T07:44:14.472Z,17.83
2023-04-11T07:46:41.741Z,16.52
2023-04-11T07:49:09.249Z,16.73
2023-04-11T07:51:36.581Z,18.35
2023-04-11T07:54:04.154Z,17.22
2023-04-11T07:56:31.368Z,18.93
2023-04-11T07:58:58.935Z,17.19
2023-04-11T08:01:27.101Z,17.72
2023-04-11T08:03:55.833Z,17.45
2023-04-11T08:06:23.585Z,16.53
2023-04-11T08:08:51.498Z,17.82
2023-04-11T08:11:18.867Z,16.65
2023-04-11T08:13:46.391Z,15.22
2023-04-11T08:16:15.691Z,17.01
2023-04-11T08:18:43.492Z,16.83
2023-04-11T08:21:11.655Z,17.18
2023-04-11T08:23:39.891Z,20.56
2023-04-11T08:26:08.223Z,22.04
2023-04-11T08:28:36.341Z,19.70
2023-04-11T08:31:05.480Z,19.70
2023-04-11T08:33:33.491Z,18.48
2023-04-11T08:36:00.760Z,20.81
2023-04-11T08:38:28.450Z,20.07
2023-04-11T08:40:55.971Z,16.56
2023-04-11T08:43:23.963Z,19.01
2023-04-11T08:45:51.270Z,16.93
2023-04-11T08:48:21.957Z,18.33
2023-04-11T08:50:49.132Z,19.43
2023-04-11T08:53:18.961Z,18.01
2023-04-11T08:55:47.323Z,18.28
2023-04-11T08:58:14.903Z,18.63
2023-04-11T09:00:43.019Z,16.72
2023-04-11T09:03:12.286Z,15.88
2023-04-11T09:05:41.888Z,15.35
2023-04-11T09:08:11.270Z,15.98
2023-04-11T09:10:40.021Z,17.30
2023-04-11T09:13:22.268Z,16.47
2023-04-11T09:16:10.562Z,17.40
2023-04-11T09:18:43.623Z,16.77
2023-04-11T09:21:13.497Z,16.48
2023-04-11T09:23:41.398Z,17.63
2023-04-11T09:26:10.451Z,17.76
2023-04-11T09:28:54.785Z,16.94
2023-04-11T09:31:22.383Z,16.49
2023-04-11T09:33:55.316Z,18.02
2023-04-11T09:36:24.978Z,16.94
2023-04-11T09:38:53.934Z,18.54
2023-04-11T09:41:34.773Z,17.14
2023-04-11T09:44:02.723Z,19.20
2023-04-11T09:46:30.083Z,18.91
2023-04-11T09:48:57.682Z,17.78
2023-04-11T09:51:35.893Z,18.74
2023-04-11T09:54:05.884Z,18.13
2023-04-11T09:56:37.200Z,17.86
2023-04-11T09:59:05.333Z,19.30
2023-04-11T10:01:33.464Z,18.48
2023-04-11T10:04:01.589Z,17.09
2023-04-11T10:06:46.933Z,18.42
2023-04-11T10:09:15.627Z,17.69
2023-04-11T10:11:44.116Z,16.95
2023-04-11T10:14:44.332Z,16.69
2023-04-11T10:17:18.941Z,17.28
2023-04-11T10:19:51.640Z,17.98
2023-04-11T10:22:43.214Z,16.37
2023-04-11T10:25:22.001Z,17.10
2023-04-11T10:28:01.137Z,17.73
2023-04-11T10:30:41.164Z,17.49
2023-04-11T10:33:19.702Z,17.31
2023-04-11T10:36:03.078Z,17.17
2023-04-11T10:38:48.780Z,17.41
2023-04-11T10:41:27.680Z,16.94
2023-04-11T10:44:21.286Z,17.26
2023-04-11T10:46:54.358Z,18.78
2023-04-11T10:49:32.841Z,17.76
2023-04-11T10:52:17.643Z,18.34
2023-04-11T10:54:48.737Z,18.21
2023-04-11T10:57:16.485Z,16.96
2023-04-11T10:59:49.660Z,16.62
2023-04-11T11:02:18.277Z,16.56
2023-04-11T11:04:47.156Z,16.43
2023-04-11T11:07:18.040Z,16.34
2023-04-11T11:09:51.304Z,16.20
2023-04-11T11:12:19.051Z,16.31
2023-04-11T11:14:47.454Z,16.19
2023-04-11T11:17:16.880Z,16.67
2023-04-11T11:19:45.522Z,16.32
2023-04-11T11:22:17.609Z,16.20
2023-04-11T11:24:44.936Z,16.85
2023-04-11T11:27:24.192Z,16.24
2023-04-11T11:29:52.982Z,16.68
2023-04-11T11:32:30.061Z,16.28
2023-04-11T11:37:45.321Z,17.07
2023-04-11T11:40:13.248Z,17.51
2023-04-11T11:42:41.329Z,16.65
2023-04-11T11:45:19.989Z,16.42
2023-04-11T11:47:49.731Z,16.87
2023-04-11T11:50:31.483Z,16.42
2023-04-11T11:53:14.216Z,16.33
2023-04-11T11:55:42.266Z,16.15
2023-04-11T11:58:09.811Z,15.92
2023-04-11T12:00:39.393Z,16.14
2023-04-11T12:03:11.901Z,16.44
2023-04-11T12:05:39.463Z,16.32
2023-04-11T12:08:07.844Z,15.96
2023-04-11T12:10:43.287Z,16.45
2023-04-11T12:13:16.609Z,16.23
2023-04-11T12:15:46.505Z,17.10
2023-04-11T12:18:14.359Z,17.58
2023-04-11T12:20:41.853Z,17.49
2023-04-11T12:23:09.438Z,17.33
2023-04-11T12:25:37.013Z,16.75
2023-04-11T12:28:04.506Z,16.44
2023-04-11T12:30:31.751Z,17.13
2023-04-11T12:32:59.396Z,16.75
2023-04-11T12:35:26.660Z,17.71
2023-04-11T12:37:54.170Z,17.46
2023-04-11T12:40:21.535Z,16.98
2023-04-11T12:42:56.990Z,16.38
2023-04-11T12:45:26.255Z,16.27
2023-04-11T12:47:54.236Z,16.73
2023-04-11T12:50:23.868Z,17.10
2023-04-11T12:52:52.538Z,17.59
2023-04-11T12:55:19.961Z,17.63
2023-04-11T12:57:47.552Z,16.38
2023-04-11T13:00:15.426Z,16.67
2023-04-11T13:02:45.299Z,16.64
2023-04-11T13:05:17.105Z,16.76
2023-04-11T13:07:45.408Z,16.41
2023-04-11T13:10:16.825Z,16.63
2023-04-11T13:12:45.557Z,16.79
2023-04-11T13:15:15.040Z,16.60
2023-04-11T13:17:43.380Z,16.45
2023-04-11T13:20:18.177Z,16.54
2023-04-11T13:22:46.240Z,16.54
2023-04-11T13:25:13.461Z,16.73
2023-04-11T13:27:42.205Z,17.30
2023-04-11T13:30:10.722Z,17.38
2023-04-11T13:32:38.420Z,16.50
2023-04-11T13:35:06.683Z,16.86
2023-04-11T13:37:34.198Z,16.33
2023-04-11T13:40:01.608Z,16.41
2023-04-11T13:42:29.232Z,16.86
2023-04-11T13:44:56.417Z,17.02
2023-04-11T13:47:24.024Z,16.69
2023-04-11T13:49:51.276Z,16.59
2023-04-11T13:52:18.922Z,16.47
2023-04-11T13:54:46.247Z,16.89
2023-04-11T13:57:13.786Z,16.88
2023-04-11T13:59:41.160Z,16.96
2023-04-11T14:02:08.812Z,16.44
2023-04-11T14:04:36.283Z,16.38
2023-04-11T14:07:03.959Z,16.23
2023-04-11T14:09:31.255Z,16.21
2023-04-11T14:11:58.797Z,16.24
2023-04-11T14:14:26.370Z,16.64
2023-04-11T14:16:54.018Z,16.19
2023-04-11T14:19:22.775Z,16.19
2023-04-11T14:21:51.698Z,15.99
2023-04-11T14:24:22.449Z,16.03
2023-04-11T14:26:50.350Z,16.23
2023-04-11T14:29:17.816Z,16.09
2023-04-11T14:31:45.482Z,16.23
2023-04-11T14:34:12.809Z,15.96
2023-04-11T14:36:40.447Z,15.82
2023-04-11T14:39:08.301Z,16.01
2023-04-11T14:41:36.070Z,16.43
2023-04-11T14:44:03.351Z,16.66
2023-04-11T14:46:31.148Z,16.13
2023-04-11T14:48:58.417Z,16.07
2023-04-11T14:51:27.752Z,15.80
2023-04-11T14:53:59.843Z,16.01
2023-04-11T14:56:27.509Z,16.23
2023-04-11T14:58:55.056Z,16.53
2023-04-11T15:01:22.809Z,16.56
2023-04-11T15:03:50.201Z,16.32
2023-04-11T15:06:18.248Z,16.19
2023-04-11T15:08:45.847Z,15.90
2023-04-11T15:11:13.496Z,15.98
2023-04-11T15:13:40.924Z,15.66
2023-04-11T15:16:08.731Z,15.74
2023-04-11T15:18:35.938Z,15.79
2023-04-11T15:21:03.598Z,15.88
2023-04-11T15:23:31.164Z,15.58
2023-04-11T15:26:00.463Z,15.75
2023-04-11T15:28:31.986Z,15.94
2023-04-11T15:30:59.950Z,15.96
2023-04-11T15:33:27.817Z,15.63
2023-04-11T15:35:57.802Z,15.70
2023-04-11T15:38:26.840Z,16.23
2023-04-11T15:40:56.324Z,16.29
2023-04-11T15:43:24.246Z,16.49
2023-04-11T15:45:53.704Z,16.27
2023-04-11T15:48:21.040Z,16.84
2023-04-11T15:50:48.907Z,16.35
2023-04-11T15:53:16.289Z,16.03
2023-04-11T15:55:44.195Z,16.29
2023-04-11T15:58:11.635Z,16.16
2023-04-11T16:00:40.216Z,15.60
2023-04-11T16:03:08.901Z,15.39
2023-04-11T16:05:40.266Z,15.54
2023-04-11T16:08:07.965Z,15.69
2023-04-11T16:10:35.587Z,15.55
2023-04-11T16:13:03.225Z,15.49
2023-04-11T16:15:30.841Z,15.54
2023-04-11T16:17:58.118Z,15.39
2023-04-11T16:20:25.788Z,15.54
2023-04-11T16:22:53.057Z,15.36
2023-04-11T16:25:21.575Z,15.15
2023-04-11T16:27:51.167Z,15.35
2023-04-11T16:30:19.139Z,15.80
2023-04-11T16:32:46.547Z,15.52
2023-04-11T16:35:14.162Z,15.19
2023-04-11T16:37:41.904Z,15.23
2023-04-11T16:40:12.665Z,15.14
2023-04-11T16:42:40.481Z,15.48
2023-04-11T16:45:09.870Z,15.66
2023-04-11T16:47:37.817Z,15.34
2023-04-11T16:50:06.212Z,15.22
2023-04-11T16:52:33.918Z,15.28
2023-04-11T16:55:03.007Z,15.68
2023-04-11T16:57:30.326Z,15.54
2023-04-11T16:59:57.850Z,15.47
2023-04-11T17:02:25.449Z,15.19
2023-04-11T17:04:53.180Z,15.22
2023-04-11T17:07:20.686Z,14.94
2023-04-11T17:09:49.312Z,15.11
2023-04-11T17:12:16.589Z,14.98
2023-04-11T17:14:45.736Z,14.49
2023-04-11T17:17:13.116Z,14.36
2023-04-11T17:19:42.228Z,14.13
2023-04-11T17:22:09.473Z,14.18
2023-04-11T17:24:37.138Z,14.19
2023-04-11T17:27:04.532Z,14.26
2023-04-11T17:29:32.421Z,14.03
2023-04-11T17:31:59.764Z,14.00
2023-04-11T17:34:27.343Z,13.82
2023-04-11T17:36:54.880Z,13.71
2023-04-11T17:39:23.026Z,13.86
2023-04-11T17:41:50.402Z,13.64
2023-04-11T17:44:18.168Z,13.67
2023-04-11T17:46:45.705Z,13.64
2023-04-11T17:49:13.342Z,13.15
2023-04-11T17:51:48.802Z,13.25
2023-04-11T17:55:16.575Z,13.21
2023-04-11T17:58:44.338Z,12.60
2023-04-11T18:01:12.200Z,12.63
2023-04-11T18:03:41.314Z,12.86
2023-04-11T18:06:09.405Z,12.80
2023-04-11T18:11:11.074Z,12.85
2023-04-11T18:13:38.388Z,12.53
2023-04-11T18:16:06.365Z,12.50
2023-04-11T18:18:33.757Z,12.58
2023-04-11T18:21:06.649Z,12.13
2023-04-11T18:23:35.725Z,12.32
2023-04-11T18:26:03.401Z,12.39
2023-04-11T18:28:30.825Z,12.20
2023-04-11T18:30:58.433Z,12.28
2023-04-11T18:33:26.232Z,12.24
2023-04-11T18:35:54.054Z,12.25
2023-04-11T18:38:21.392Z,12.27
2023-04-11T18:40:49.484Z,12.28
2023-04-11T18:43:17.625Z,12.18
2023-04-11T18:45:46.975Z,12.18
2023-04-11T18:48:14.581Z,12.07
2023-04-11T18:50:44.664Z,12.04
2023-04-11T18:53:13.532Z,11.91
2023-04-11T18:55:41.983Z,11.90
2023-04-11T18:58:11.033Z,11.92
2023-04-11T19:00:40.136Z,12.02
2023-04-11T19:03:15.419Z,12.00
2023-04-11T19:05:45.471Z,11.92
2023-04-11T19:08:13.203Z,11.86
2023-04-11T19:10:41.218Z,11.59
2023-04-11T19:13:08.957Z,11.49
2023-04-11T19:15:37.107Z,11.45
2023-04-11T19:18:06.553Z,11.19
2023-04-11T19:20:36.592Z,11.30
2023-04-11T19:23:05.974Z,11.40
2023-04-11T19:25:34.801Z,11.33
2023-04-11T19:28:03.124Z,11.43
2023-04-11T19:30:30.952Z,11.31
2023-04-11T19:32:58.891Z,11.22
2023-04-11T19:35:27.383Z,11.20
2023-04-11T19:37:54.719Z,11.22
2023-04-11T19:40:25.839Z,10.90
2023-04-11T19:42:53.258Z,10.79
2023-04-11T19:45:22.203Z,10.92
2023-04-11T19:47:49.552Z,11.01
2023-04-11T19:50:17.806Z,11.07
2023-04-11T19:52:45.383Z,11.23
2023-04-11T19:55:12.993Z,11.13
2023-04-11T19:57:41.221Z,11.03
2023-04-11T20:00:14.467Z,11.23
2023-04-11T20:02:46.776Z,11.40
2023-04-11T20:05:16.506Z,11.26
2023-04-11T20:07:44.119Z,11.16
2023-04-11T20:10:13.071Z,11.09
2023-04-11T20:12:40.887Z,10.99
2023-04-11T20:15:09.404Z,11.06
2023-04-11T20:17:36.872Z,11.10
2023-04-11T20:20:08.976Z,11.20
2023-04-11T20:22:39.371Z,11.04
2023-04-11T20:25:08.025Z,11.13
2023-04-11T20:27:35.501Z,10.86
2023-04-11T20:30:10.384Z,10.70
2023-04-11T20:32:38.487Z,10.77
2023-04-11T20:35:08.753Z,10.62
2023-04-11T20:37:36.572Z,10.78
2023-04-11T20:40:10.257Z,10.76
2023-04-11T20:42:46.036Z,10.81
2023-04-11T20:45:16.308Z,10.79
2023-04-11T20:47:50.267Z,10.70
2023-04-11T20:50:19.378Z,10.74
2023-04-11T20:52:50.533Z,10.67
2023-04-11T20:55:18.428Z,10.51
2023-04-11T20:57:45.641Z,10.62
2023-04-11T21:00:20.096Z,10.68
2023-04-11T21:02:49.948Z,10.70
2023-04-11T21:05:19.710Z,10.76
2023-04-11T21:07:46.997Z,10.77
2023-04-11T21:10:15.765Z,10.60
2023-04-11T21:12:43.342Z,10.70
2023-04-11T21:15:11.889Z,10.76
2023-04-11T21:17:39.826Z,10.75
2023-04-11T21:20:18.102Z,10.65
2023-04-11T21:22:53.129Z,10.51
2023-04-11T21:25:21.473Z,10.52
2023-04-11T21:27:49.896Z,10.33
2023-04-11T21:30:17.705Z,10.40
2023-04-11T21:32:44.998Z,10.46
2023-04-11T21:35:12.757Z,10.48
2023-04-11T21:37:40.008Z,10.57
2023-04-11T21:40:08.168Z,10.59
2023-04-11T21:42:35.361Z,10.41
2023-04-11T21:45:02.989Z,10.53
2023-04-11T21:47:30.377Z,10.44
2023-04-11T21:49:58.002Z,10.53
2023-04-11T21:52:25.460Z,10.61
2023-04-11T21:54:53.097Z,10.57
2023-04-11T21:57:20.353Z,10.46
2023-04-11T21:59:48.027Z,10.36
2023-04-11T22:02:15.395Z,10.15
2023-04-11T22:05:01.230Z,10.11
2023-04-11T22:07:39.056Z,9.90
2023-04-11T22:10:10.009Z,9.87
2023-04-11T22:12:38.072Z,10.05
2023-04-11T22:15:06.660Z,10.09
2023-04-11T22:17:34.770Z,10.03
2023-04-11T22:20:05.024Z,9.93
2023-04-11T22:22:32.430Z,10.05
2023-04-11T22:25:00.166Z,10.17
2023-04-11T22:27:27.561Z,9.99
2023-04-11T22:29:57.911Z,9.95
2023-04-11T22:32:25.236Z,9.70
2023-04-11T22:34:52.786Z,9.78
2023-04-11T22:37:20.066Z,9.88
2023-04-11T22:39:47.569Z,10.00
2023-04-11T22:42:14.764Z,10.10
2023-04-11T22:44:42.342Z,10.18
2023-04-11T22:47:13.499Z,10.28
2023-04-11T22:49:41.161Z,10.24
2023-04-11T22:52:10.762Z,10.32
2023-04-11T22:54:38.619Z,10.37
2023-04-11T22:57:06.452Z,10.04
2023-04-11T22:59:33.954Z,10.30
2023-04-11T23:02:01.250Z,10.26
2023-04-11T23:04:31.129Z,10.31
2023-04-11T23:06:58.446Z,10.35
2023-04-11T23:09:26.477Z,10.38
2023-04-11T23:11:53.700Z,10.35
2023-04-11T23:14:22.414Z,10.35
2023-04-11T23:16:49.923Z,10.41
2023-04-11T23:19:18.951Z,10.40
2023-04-11T23:21:46.288Z,10.57
2023-04-11T23:24:14.116Z,10.64
2023-04-11T23:26:42.386Z,10.55
2023-04-11T23:29:09.906Z,10.54
2023-04-11T23:31:37.101Z,10.69
2023-04-11T23:34:04.665Z,10.60
2023-04-11T23:36:32.858Z,10.77
2023-04-11T23:39:02.251Z,10.76
2023-04-11T23:41:30.368Z,10.83
2023-04-11T23:43:58.241Z,10.82
2023-04-11T23:46:26.370Z,10.84
2023-04-11T23:48:54.127Z,10.72
2023-04-11T23:51:21.625Z,10.72
2023-04-11T23:53:49.880Z,10.51
2023-04-11T23:56:17.458Z,10.66
2023-04-11T23:58:45.202Z,10.60
